Terminal Aerodrome Forecast
Issued by NWS Billings, MT

Home | Current Version | Previous Version | Text Only | Print | Product List | Glossary On
Versions: 1 2 3 4 5 6 7 8 9 10 11 12 13 14 15 16 17 18 19 20 21 22 23 24 25 26 27
241
FTUS45 KBYZ 061138
TAFSHR
TAF
KSHR 061138Z 0612/0712 VRB03KT P6SM BKN200
     FM061800 32013G25KT P6SM BKN200
     FM062200 33017G40KT P6SM VCSH SCT040 BKN060
      AMD NOT SKED=

USA.gov is the U.S. government's official web portal to all federal, state and local government web resources and services.